Time;durP1;ratioP1;P1;durP2;ratioP2;P2;SDS_P1;SDS_P2;PMS_P1;PMS_P2;Temp;Humidity;BMP_temperature;BMP_pressure;BME280_temperature;BME280_humidity;BME280_pressure;Samples;Min_cycle;Max_cycle;Signal;HPM_P1;HPM_P2
2022/03/12 09:04:42;;;;;;;26.98;16.58;;;;;;;;;;6239778;22;20052;-95
2022/03/12 10:27:26;;;;;;;23.27;13.82;;;;;;;;;;6186356;23;20000;-95
2022/03/12 10:43:13;;;;;;;24.35;15.10;;;;;;;;;;6242837;22;20020;-96
2022/03/12 10:48:45;;;;;;;24.48;14.63;;;;;;;;;;6199576;22;20361;-96
2022/03/12 10:51:10;;;;;;;24.33;14.55;;;;;;;;;;6236972;23;20008;-96
2022/03/12 10:53:36;;;;;;;25.70;14.82;;;;;;;;;;6237075;23;20034;-95
2022/03/12 10:56:06;;;;;;;24.30;13.68;;;;;;;;;;6254477;23;20003;-94
2022/03/12 10:58:33;;;;;;;27.92;15.10;;;;;;;;;;6260157;23;20090;-94
2022/03/12 11:01:01;;;;;;;26.27;16.10;;;;;;;;;;6261167;22;20012;-96
2022/03/12 11:03:31;;;;;;;26.20;15.77;;;;;;;;;;6253695;23;20006;-95
2022/03/12 11:05:57;;;;;;;25.17;14.88;;;;;;;;;;6272331;22;19999;-95
2022/03/12 11:08:25;;;;;;;23.67;15.27;;;;;;;;;;6274268;22;20072;-92
2022/03/12 11:10:59;;;;;;;23.33;14.60;;;;;;;;;;6270094;22;20036;-90
2022/03/12 11:13:40;;;;;;;22.17;14.05;;;;;;;;;;6272493;22;19992;-89
2022/03/12 11:16:27;;;;;;;24.85;15.43;;;;;;;;;;6266533;22;20011;-89
2022/03/12 11:18:52;;;;;;;23.33;15.30;;;;;;;;;;6265768;22;20023;-96
2022/03/12 11:21:43;;;;;;;21.42;14.00;;;;;;;;;;6246651;23;20427;-92
2022/03/12 11:24:24;;;;;;;26.52;15.45;;;;;;;;;;6253393;22;19992;-96
2022/03/12 11:26:52;;;;;;;24.27;15.85;;;;;;;;;;6249059;23;20008;-96
2022/03/12 11:29:21;;;;;;;25.10;15.55;;;;;;;;;;6248951;23;20020;-96
2022/03/12 11:31:56;;;;;;;27.52;16.02;;;;;;;;;;6256132;23;20039;-93
2022/03/12 11:34:24;;;;;;;23.40;15.77;;;;;;;;;;6250601;22;20004;-95
2022/03/12 11:37:04;;;;;;;28.83;16.10;;;;;;;;;;6253325;23;20064;-96
2022/03/12 11:39:32;;;;;;;25.73;15.38;;;;;;;;;;6248973;23;20051;-93
2022/03/12 11:44:54;;;;;;;27.95;16.10;;;;;;;;;;6252610;23;20024;-95
2022/03/12 11:47:30;;;;;;;24.48;14.80;;;;;;;;;;6253304;23;20339;-96
2022/03/12 11:49:58;;;;;;;24.33;14.77;;;;;;;;;;6254960;23;20016;-96
2022/03/12 11:52:24;;;;;;;23.33;15.27;;;;;;;;;;6251192;23;20000;-96
2022/03/12 11:54:55;;;;;;;24.73;14.77;;;;;;;;;;6249166;23;20424;-96
2022/03/12 11:57:32;;;;;;;23.33;15.35;;;;;;;;;;6248926;23;20004;-96
2022/03/12 11:59:59;;;;;;;26.85;16.80;;;;;;;;;;6250399;23;20088;-94
2022/03/12 12:02:26;;;;;;;25.15;15.43;;;;;;;;;;6254194;23;19991;-95
2022/03/12 12:04:52;;;;;;;24.92;16.35;;;;;;;;;;6251210;23;20012;-96
2022/03/12 12:07:23;;;;;;;25.63;16.70;;;;;;;;;;6248215;23;20011;-94
2022/03/12 12:09:49;;;;;;;25.08;16.42;;;;;;;;;;6249880;23;20035;-94
2022/03/12 12:12:15;;;;;;;26.33;16.95;;;;;;;;;;6253500;23;20058;-96
2022/03/12 12:14:41;;;;;;;21.50;15.52;;;;;;;;;;6248932;23;20000;-94
2022/03/12 12:17:07;;;;;;;25.05;16.98;;;;;;;;;;6247309;23;20008;-94
2022/03/12 12:19:34;;;;;;;22.70;16.15;;;;;;;;;;6247332;23;20058;-96
2022/03/12 12:22:01;;;;;;;29.23;16.98;;;;;;;;;;6247610;23;20011;-95
2022/03/12 12:24:36;;;;;;;26.02;16.40;;;;;;;;;;6248565;23;20072;-96
2022/03/12 12:27:04;;;;;;;23.30;15.80;;;;;;;;;;6250637;23;20007;-95
2022/03/12 12:29:49;;;;;;;24.17;15.90;;;;;;;;;;6249869;23;20012;-94
2022/03/12 12:32:18;;;;;;;22.42;16.08;;;;;;;;;;6248168;23;20091;-95
2022/03/12 12:35:05;;;;;;;26.40;17.17;;;;;;;;;;6248823;23;20091;-90
2022/03/12 12:37:45;;;;;;;23.52;17.02;;;;;;;;;;6247292;23;20012;-92
2022/03/12 12:40:16;;;;;;;24.60;16.20;;;;;;;;;;6248926;23;20008;-96
2022/03/12 12:42:43;;;;;;;23.65;16.02;;;;;;;;;;6250166;23;20584;-96
2022/03/12 12:45:16;;;;;;;23.35;15.98;;;;;;;;;;6250839;23;20004;-96
2022/03/12 12:47:42;;;;;;;25.83;16.30;;;;;;;;;;6249593;23;20016;-95
2022/03/12 12:50:24;;;;;;;23.50;15.95;;;;;;;;;;6248035;23;20062;-96
2022/03/12 12:53:29;;;;;;;22.58;16.13;;;;;;;;;;6248547;23;20070;-96
2022/03/12 12:56:17;;;;;;;24.05;16.38;;;;;;;;;;6226368;23;20008;-96
2022/03/12 12:59:13;;;;;;;25.90;17.25;;;;;;;;;;6226064;23;20008;-96
2022/03/12 13:01:41;;;;;;;25.38;16.73;;;;;;;;;;6239989;23;20032;-96
2022/03/12 13:04:09;;;;;;;23.25;15.82;;;;;;;;;;6255771;23;20079;-96
2022/03/12 13:06:40;;;;;;;26.10;17.23;;;;;;;;;;6251461;23;20010;-96
2022/03/12 13:09:33;;;;;;;28.38;16.83;;;;;;;;;;6251027;23;20447;-96
2022/03/12 13:12:00;;;;;;;24.10;16.45;;;;;;;;;;6251134;23;20050;-96
2022/03/12 13:14:28;;;;;;;21.92;16.63;;;;;;;;;;6251758;23;20000;-96
2022/03/12 13:17:03;;;;;;;23.50;15.93;;;;;;;;;;6248427;23;20000;-93
2022/03/12 13:19:28;;;;;;;22.63;15.32;;;;;;;;;;6251712;23;20008;-96
2022/03/12 13:22:04;;;;;;;25.60;15.43;;;;;;;;;;6249972;23;20442;-96
2022/03/12 13:24:46;;;;;;;25.00;16.33;;;;;;;;;;6251164;23;20499;-93
2022/03/12 13:27:18;;;;;;;26.60;16.58;;;;;;;;;;6250054;23;20008;-93
2022/03/12 13:29:44;;;;;;;27.13;17.02;;;;;;;;;;6248793;23;20062;-92
2022/03/12 13:32:20;;;;;;;24.05;15.65;;;;;;;;;;6249011;23;20446;-94
2022/03/12 13:34:46;;;;;;;25.20;16.15;;;;;;;;;;6249149;23;20008;-96
2022/03/12 13:37:12;;;;;;;26.60;16.05;;;;;;;;;;6247440;23;20490;-95
2022/03/12 13:39:37;;;;;;;25.38;16.15;;;;;;;;;;6247441;23;20081;-92
2022/03/12 13:42:03;;;;;;;26.17;16.15;;;;;;;;;;6248026;23;20004;-95
2022/03/12 13:44:29;;;;;;;24.40;15.90;;;;;;;;;;6248816;23;20040;-95
2022/03/12 13:50:17;;;;;;;27.45;17.05;;;;;;;;;;6203565;22;20019;-95
2022/03/12 13:58:43;;;;;;;29.17;17.48;;;;;;;;;;6226657;22;20024;-92
2022/03/12 14:01:34;;;;;;;27.77;16.27;;;;;;;;;;6228391;23;20076;-92
2022/03/12 14:07:21;;;;;;;28.30;17.15;;;;;;;;;;6261191;22;20028;-93
2022/03/12 14:30:28;;;;;;;27.05;17.05;;;;;;;;;;6194719;22;20040;-96
2022/03/12 14:32:56;;;;;;;29.90;18.33;;;;;;;;;;6227385;23;20012;-96
2022/03/12 14:35:25;;;;;;;31.20;19.05;;;;;;;;;;6248205;23;20104;-93
2022/03/12 14:37:51;;;;;;;29.83;18.33;;;;;;;;;;6247797;23;20032;-94
2022/03/12 14:40:18;;;;;;;27.63;18.30;;;;;;;;;;6247139;23;20074;-94
2022/03/12 14:42:45;;;;;;;32.25;19.15;;;;;;;;;;6247053;23;20011;-96
2022/03/12 14:45:12;;;;;;;27.38;17.38;;;;;;;;;;6247755;23;20431;-93
2022/03/12 14:47:38;;;;;;;34.38;19.55;;;;;;;;;;6247015;23;20095;-95
2022/03/12 14:50:08;;;;;;;32.63;20.67;;;;;;;;;;6247415;23;20004;-95
2022/03/12 14:52:35;;;;;;;32.22;18.60;;;;;;;;;;6246532;23;20427;-94
2022/03/12 14:55:07;;;;;;;31.15;18.35;;;;;;;;;;6247400;23;20012;-96
2022/03/12 14:57:32;;;;;;;27.42;17.63;;;;;;;;;;6247845;23;20000;-96
2022/03/12 14:59:58;;;;;;;27.35;16.58;;;;;;;;;;6254198;23;20078;-96
2022/03/12 15:02:26;;;;;;;27.58;16.85;;;;;;;;;;6256167;23;20053;-95
2022/03/12 15:04:51;;;;;;;30.35;18.58;;;;;;;;;;6247227;23;20011;-96
2022/03/12 15:07:30;;;;;;;27.42;16.95;;;;;;;;;;6247190;23;20483;-95
2022/03/12 15:10:02;;;;;;;30.45;17.20;;;;;;;;;;6257203;23;20004;-96
2022/03/12 15:12:48;;;;;;;29.25;18.00;;;;;;;;;;6258755;23;20063;-96
2022/03/12 15:15:26;;;;;;;29.42;17.33;;;;;;;;;;6232193;23;20019;-96
2022/03/12 15:20:59;;;;;;;31.60;18.23;;;;;;;;;;6241983;22;20042;-92
2022/03/12 15:26:22;;;;;;;31.85;17.23;;;;;;;;;;6261245;22;20020;-96
2022/03/12 15:28:52;;;;;;;32.75;17.85;;;;;;;;;;6262404;23;20020;-95
2022/03/12 15:31:18;;;;;;;33.20;17.73;;;;;;;;;;6262474;23;20001;-96
2022/03/12 15:34:20;;;;;;;27.05;17.17;;;;;;;;;;6258788;23;20030;-94
2022/03/12 15:37:09;;;;;;;31.58;18.05;;;;;;;;;;6254076;22;20031;-96
2022/03/12 15:39:36;;;;;;;28.42;17.08;;;;;;;;;;6265226;23;20035;-96
2022/03/12 15:42:01;;;;;;;49.08;23.90;;;;;;;;;;6261372;22;20005;-95
2022/03/12 15:44:27;;;;;;;47.15;24.08;;;;;;;;;;6253472;23;19988;-96
2022/03/12 15:46:53;;;;;;;31.98;18.10;;;;;;;;;;6248273;23;20477;-94
2022/03/12 15:49:18;;;;;;;30.38;17.30;;;;;;;;;;6247102;23;20004;-96
2022/03/12 15:51:44;;;;;;;33.78;18.98;;;;;;;;;;6246188;23;20008;-96
2022/03/12 15:54:10;;;;;;;33.42;19.05;;;;;;;;;;6246494;23;20039;-96
2022/03/12 15:56:36;;;;;;;32.83;19.23;;;;;;;;;;6247146;23;20371;-96
2022/03/12 15:59:03;;;;;;;32.05;17.83;;;;;;;;;;6247525;23;20004;-96
2022/03/12 16:01:29;;;;;;;30.75;18.65;;;;;;;;;;6259942;22;20004;-95
2022/03/12 16:03:54;;;;;;;30.35;18.55;;;;;;;;;;6253802;23;20047;-96
2022/03/12 17:38:14;;;;;;;36.08;20.23;;;;;;;;;;6194335;23;20004;-90
2022/03/12 17:40:40;;;;;;;35.45;20.35;;;;;;;;;;6219984;23;20012;-91
2022/03/12 17:43:06;;;;;;;31.15;18.25;;;;;;;;;;6247263;23;20019;-89
2022/03/12 17:45:33;;;;;;;41.70;21.27;;;;;;;;;;6250604;22;20070;-91
2022/03/12 17:48:01;;;;;;;34.58;19.35;;;;;;;;;;6251690;22;20108;-89
2022/03/12 17:50:27;;;;;;;32.00;19.42;;;;;;;;;;6251501;22;20087;-90
2022/03/12 17:52:52;;;;;;;36.20;20.85;;;;;;;;;;6251071;22;20011;-88
2022/03/12 17:55:19;;;;;;;46.65;28.73;;;;;;;;;;6250686;22;20011;-90
2022/03/12 17:57:47;;;;;;;39.85;22.60;;;;;;;;;;6251251;22;20007;-88
2022/03/12 18:00:20;;;;;;;33.85;20.52;;;;;;;;;;6251458;22;20083;-90
2022/03/12 18:02:46;;;;;;;36.55;19.55;;;;;;;;;;6251587;22;20011;-93
2022/03/12 18:05:13;;;;;;;35.67;20.33;;;;;;;;;;6251377;22;20012;-89
2022/03/12 18:07:39;;;;;;;34.75;20.35;;;;;;;;;;6251386;22;20449;-89
2022/03/12 18:10:07;;;;;;;34.83;19.17;;;;;;;;;;6251340;22;20003;-91
2022/03/12 18:12:36;;;;;;;30.77;18.77;;;;;;;;;;6251703;22;19996;-90
2022/03/12 18:15:03;;;;;;;32.55;20.63;;;;;;;;;;6251193;22;20008;-91
2022/03/12 18:17:31;;;;;;;36.05;20.23;;;;;;;;;;6251675;22;20003;-93
2022/03/12 18:19:57;;;;;;;33.53;19.73;;;;;;;;;;6251433;22;20003;-91
2022/03/12 18:22:24;;;;;;;35.55;19.88;;;;;;;;;;6251315;22;19999;-90
2022/03/12 18:24:50;;;;;;;33.00;18.77;;;;;;;;;;6251592;22;20384;-92
2022/03/12 18:27:15;;;;;;;34.00;19.77;;;;;;;;;;6253377;22;20004;-91
2022/03/12 18:29:41;;;;;;;35.78;20.23;;;;;;;;;;6252115;22;20007;-95
2022/03/12 18:32:08;;;;;;;32.63;18.10;;;;;;;;;;6279010;22;20007;-94
2022/03/12 18:34:34;;;;;;;31.88;17.50;;;;;;;;;;6251615;22;20042;-93
2022/03/12 18:37:00;;;;;;;29.27;17.88;;;;;;;;;;6251173;22;20485;-93
2022/03/12 18:39:26;;;;;;;35.65;19.40;;;;;;;;;;6251300;22;20003;-92
2022/03/12 18:41:51;;;;;;;31.67;20.20;;;;;;;;;;6251339;22;20008;-92
2022/03/12 18:44:17;;;;;;;31.85;18.75;;;;;;;;;;6251396;22;20004;-95
2022/03/12 18:46:43;;;;;;;33.70;18.45;;;;;;;;;;6251550;22;20086;-93
2022/03/12 18:49:09;;;;;;;33.30;19.48;;;;;;;;;;6251567;22;20014;-94
2022/03/12 18:51:40;;;;;;;32.25;19.10;;;;;;;;;;6251362;22;20008;-93
2022/03/12 18:54:06;;;;;;;34.22;20.13;;;;;;;;;;6251458;22;20007;-94
2022/03/12 18:56:34;;;;;;;35.30;19.65;;;;;;;;;;6251225;22;20008;-93
2022/03/12 18:59:00;;;;;;;37.83;19.70;;;;;;;;;;6251205;22;20011;-93
2022/03/12 19:01:26;;;;;;;39.28;21.58;;;;;;;;;;6251277;22;20047;-91
2022/03/12 19:03:51;;;;;;;36.47;20.50;;;;;;;;;;6251244;22;20007;-92
2022/03/12 19:06:17;;;;;;;44.15;26.17;;;;;;;;;;6251293;22;20003;-93
2022/03/12 19:08:42;;;;;;;55.30;31.70;;;;;;;;;;6251500;22;20015;-93
2022/03/12 19:11:10;;;;;;;36.70;21.40;;;;;;;;;;6253616;22;20429;-92
2022/03/12 19:13:39;;;;;;;34.42;19.80;;;;;;;;;;6255582;22;20053;-93
2022/03/12 19:16:06;;;;;;;33.08;18.77;;;;;;;;;;6252420;22;20003;-94
2022/03/12 19:18:31;;;;;;;34.65;21.73;;;;;;;;;;6252227;22;20115;-92
2022/03/12 19:20:57;;;;;;;36.70;21.95;;;;;;;;;;6251228;22;20415;-93
2022/03/12 19:23:23;;;;;;;39.25;22.70;;;;;;;;;;6251543;22;20031;-94
2022/03/12 19:25:49;;;;;;;36.58;22.17;;;;;;;;;;6247594;22;20007;-94
2022/03/12 19:28:16;;;;;;;35.50;21.25;;;;;;;;;;6251372;22;20015;-92
2022/03/12 19:30:42;;;;;;;32.97;19.30;;;;;;;;;;6251485;22;20004;-96
2022/03/12 19:33:09;;;;;;;34.45;19.77;;;;;;;;;;6251385;22;20015;-93
2022/03/12 19:35:35;;;;;;;34.45;19.67;;;;;;;;;;6253332;22;20338;-93
2022/03/12 19:38:01;;;;;;;32.70;19.55;;;;;;;;;;6253131;22;20015;-93
2022/03/12 19:40:28;;;;;;;31.45;18.85;;;;;;;;;;6253487;22;20023;-93
2022/03/12 19:42:54;;;;;;;31.80;19.67;;;;;;;;;;6252909;22;20000;-92
2022/03/12 19:45:21;;;;;;;30.70;19.02;;;;;;;;;;6253071;22;20300;-94
2022/03/12 19:47:47;;;;;;;31.35;19.08;;;;;;;;;;6252891;22;20003;-93
2022/03/12 19:50:14;;;;;;;28.88;17.65;;;;;;;;;;6253124;22;20082;-93
2022/03/12 19:52:42;;;;;;;32.03;18.65;;;;;;;;;;6253074;22;20004;-90
2022/03/12 19:55:10;;;;;;;30.38;18.75;;;;;;;;;;6252589;22;20028;-89
2022/03/12 19:57:36;;;;;;;36.22;19.73;;;;;;;;;;6254405;22;20030;-91
2022/03/12 20:00:05;;;;;;;33.85;19.05;;;;;;;;;;6252900;22;20474;-90
2022/03/12 20:02:30;;;;;;;36.78;18.90;;;;;;;;;;6254724;22;20007;-90
2022/03/12 20:04:56;;;;;;;33.28;18.20;;;;;;;;;;6257049;22;20007;-91
2022/03/12 20:07:27;;;;;;;29.17;17.80;;;;;;;;;;6252542;22;20098;-89
2022/03/12 20:09:56;;;;;;;35.33;19.80;;;;;;;;;;6252354;22;20007;-91
2022/03/12 20:12:24;;;;;;;29.20;17.48;;;;;;;;;;6252411;22;20430;-90
2022/03/12 20:14:53;;;;;;;28.80;17.42;;;;;;;;;;6252219;22;20008;-90
2022/03/12 20:17:20;;;;;;;31.42;16.50;;;;;;;;;;6252252;22;20099;-89
2022/03/12 20:19:47;;;;;;;31.67;18.10;;;;;;;;;;6252368;22;20129;-92
2022/03/12 20:22:13;;;;;;;28.65;16.73;;;;;;;;;;6253032;22;20012;-93
2022/03/12 20:24:38;;;;;;;32.25;17.50;;;;;;;;;;6252362;22;19996;-92
2022/03/12 20:27:08;;;;;;;31.15;18.02;;;;;;;;;;6252389;22;20003;-91
2022/03/12 20:29:33;;;;;;;32.75;19.88;;;;;;;;;;6251994;22;20304;-92
2022/03/12 20:31:59;;;;;;;30.05;17.90;;;;;;;;;;6252098;22;20051;-91
2022/03/12 20:34:30;;;;;;;32.20;18.02;;;;;;;;;;6251950;22;20012;-92
2022/03/12 20:36:58;;;;;;;36.58;20.95;;;;;;;;;;6252295;22;20335;-91
2022/03/12 20:39:24;;;;;;;38.10;22.63;;;;;;;;;;6252191;22;20086;-93
2022/03/12 20:41:49;;;;;;;32.38;18.90;;;;;;;;;;6252287;22;20042;-91
2022/03/12 20:44:18;;;;;;;29.58;17.63;;;;;;;;;;6278578;22;20026;-88
2022/03/12 20:46:44;;;;;;;33.60;18.95;;;;;;;;;;6278231;22;20021;-91
2022/03/12 20:49:11;;;;;;;29.73;17.13;;;;;;;;;;6251405;22;20003;-89
2022/03/12 20:51:36;;;;;;;27.02;16.55;;;;;;;;;;6278347;22;20007;-88
2022/03/12 20:54:03;;;;;;;45.85;24.73;;;;;;;;;;6251057;22;20105;-89
2022/03/12 20:56:30;;;;;;;29.23;17.88;;;;;;;;;;6251147;22;20092;-87
2022/03/12 20:58:59;;;;;;;33.67;17.77;;;;;;;;;;6251338;22;20008;-89
2022/03/12 21:01:24;;;;;;;38.63;23.08;;;;;;;;;;6251614;22;20008;-92
2022/03/12 21:03:50;;;;;;;31.85;19.27;;;;;;;;;;6278768;22;20307;-90
2022/03/12 21:06:15;;;;;;;30.08;18.50;;;;;;;;;;6252072;22;20078;-90
2022/03/12 21:08:41;;;;;;;23.20;14.77;;;;;;;;;;6252201;22;20008;-92
2022/03/12 21:11:07;;;;;;;30.25;16.02;;;;;;;;;;6252047;22;20014;-92
2022/03/12 21:13:33;;;;;;;29.27;16.42;;;;;;;;;;6252089;22;20007;-92
2022/03/12 21:15:58;;;;;;;27.88;15.98;;;;;;;;;;6252340;22;20427;-92
2022/03/12 21:18:24;;;;;;;29.10;16.80;;;;;;;;;;6253265;22;20061;-91
2022/03/12 21:20:49;;;;;;;27.60;15.18;;;;;;;;;;6252299;22;20410;-93
2022/03/12 21:23:15;;;;;;;30.85;18.20;;;;;;;;;;6251687;22;20406;-92
2022/03/12 21:25:41;;;;;;;27.92;17.33;;;;;;;;;;6252134;22;20004;-91
2022/03/12 21:28:10;;;;;;;25.90;15.25;;;;;;;;;;6251976;22;20011;-92
2022/03/12 21:30:38;;;;;;;28.70;15.93;;;;;;;;;;6251643;22;20006;-91
2022/03/12 21:33:05;;;;;;;29.65;16.17;;;;;;;;;;6251973;22;20027;-92
2022/03/12 21:35:30;;;;;;;31.63;17.27;;;;;;;;;;6251869;22;20000;-90
2022/03/12 21:37:58;;;;;;;26.45;15.55;;;;;;;;;;6251450;22;20435;-91
2022/03/12 21:40:26;;;;;;;27.92;17.25;;;;;;;;;;6251765;22;20014;-91
2022/03/12 21:42:52;;;;;;;33.78;18.85;;;;;;;;;;6251870;22;20055;-91
2022/03/12 21:45:21;;;;;;;29.27;17.73;;;;;;;;;;6251718;22;20003;-91
2022/03/12 21:47:47;;;;;;;29.95;18.75;;;;;;;;;;6251449;22;20019;-91
2022/03/12 21:50:14;;;;;;;28.70;17.60;;;;;;;;;;6251624;22;20007;-93
2022/03/12 21:52:40;;;;;;;26.73;16.17;;;;;;;;;;6251835;22;20003;-91
2022/03/12 21:55:12;;;;;;;29.85;17.65;;;;;;;;;;6251387;22;20078;-91
2022/03/12 21:57:38;;;;;;;27.60;15.82;;;;;;;;;;6251415;22;20324;-91
2022/03/12 22:00:07;;;;;;;34.40;16.00;;;;;;;;;;6251401;22;20092;-92
2022/03/12 22:02:32;;;;;;;28.30;15.80;;;;;;;;;;6251088;22;20439;-91
2022/03/12 22:04:58;;;;;;;26.73;16.00;;;;;;;;;;6251842;22;20011;-92
2022/03/12 22:07:26;;;;;;;32.40;17.58;;;;;;;;;;6251142;22;20061;-92
2022/03/12 22:09:52;;;;;;;26.35;15.80;;;;;;;;;;6251494;22;20011;-91
2022/03/12 22:12:19;;;;;;;27.75;16.40;;;;;;;;;;6251649;22;20008;-91
2022/03/12 22:14:45;;;;;;;31.08;17.00;;;;;;;;;;6251554;22;20491;-91
2022/03/12 22:17:11;;;;;;;31.63;16.75;;;;;;;;;;6251485;22;20422;-92
2022/03/12 22:19:37;;;;;;;24.42;15.68;;;;;;;;;;6251394;22;20013;-91
2022/03/12 22:22:04;;;;;;;30.95;17.30;;;;;;;;;;6251427;22;20031;-91
2022/03/12 22:24:31;;;;;;;30.67;17.00;;;;;;;;;;6251570;22;20000;-92
2022/03/12 22:26:56;;;;;;;29.45;17.63;;;;;;;;;;6251488;22;20358;-92
2022/03/12 22:29:22;;;;;;;28.23;16.45;;;;;;;;;;6251403;22;20007;-94
2022/03/12 22:31:48;;;;;;;28.40;16.65;;;;;;;;;;6251434;22;20073;-92
2022/03/12 22:34:14;;;;;;;32.17;17.05;;;;;;;;;;6251440;22;20026;-92
2022/03/12 22:36:41;;;;;;;31.13;17.77;;;;;;;;;;6251280;22;20427;-91
2022/03/12 22:39:08;;;;;;;29.02;16.67;;;;;;;;;;6251344;22;20136;-91
2022/03/12 22:41:34;;;;;;;32.95;18.55;;;;;;;;;;6251341;22;20003;-92
2022/03/12 22:44:01;;;;;;;30.00;16.88;;;;;;;;;;6251239;22;20091;-92
2022/03/12 22:46:28;;;;;;;27.17;16.05;;;;;;;;;;6251212;22;20058;-90
2022/03/12 22:48:56;;;;;;;33.42;18.33;;;;;;;;;;6251075;22;20015;-91
2022/03/12 22:51:21;;;;;;;29.13;17.85;;;;;;;;;;6251517;22;20038;-94
2022/03/12 22:53:48;;;;;;;31.77;17.75;;;;;;;;;;6251775;22;20016;-91
2022/03/12 22:56:14;;;;;;;30.77;17.88;;;;;;;;;;6251372;22;20008;-91
2022/03/12 22:58:43;;;;;;;33.85;17.95;;;;;;;;;;6251615;22;20023;-92
2022/03/12 23:01:50;;;;;;;29.42;18.90;;;;;;;;;;6250947;22;20015;-92
2022/03/12 23:09:49;;;;;;;30.15;17.75;;;;;;;;;;6277713;22;20481;-92
2022/03/12 23:12:17;;;;;;;31.23;18.50;;;;;;;;;;6251197;22;20090;-91
2022/03/12 23:14:52;;;;;;;34.08;17.25;;;;;;;;;;6251035;22;20023;-91
2022/03/12 23:17:26;;;;;;;28.25;17.25;;;;;;;;;;6251135;22;20007;-92
2022/03/12 23:19:58;;;;;;;31.80;18.10;;;;;;;;;;6251245;22;20012;-91
2022/03/12 23:22:24;;;;;;;32.75;17.63;;;;;;;;;;6251256;22;20015;-92
2022/03/12 23:24:53;;;;;;;30.65;17.38;;;;;;;;;;6250861;22;20008;-91
2022/03/12 23:27:38;;;;;;;34.97;17.52;;;;;;;;;;6250984;22;20014;-92
2022/03/12 23:30:06;;;;;;;34.15;18.25;;;;;;;;;;6250696;22;20018;-91
2022/03/12 23:32:32;;;;;;;36.33;20.25;;;;;;;;;;6251314;22;20004;-91
2022/03/12 23:34:58;;;;;;;37.20;19.92;;;;;;;;;;6250940;22;20427;-91
2022/03/12 23:37:25;;;;;;;33.38;17.02;;;;;;;;;;6250904;22;20462;-91
2022/03/12 23:39:54;;;;;;;35.72;20.13;;;;;;;;;;6277944;22;20012;-92
2022/03/12 23:42:22;;;;;;;35.88;19.48;;;;;;;;;;6250921;22;20015;-91
2022/03/12 23:44:48;;;;;;;35.08;20.15;;;;;;;;;;6251054;22;20000;-91
2022/03/12 23:47:13;;;;;;;34.80;19.08;;;;;;;;;;6250722;22;20007;-91
2022/03/12 23:49:39;;;;;;;33.80;17.45;;;;;;;;;;6250638;22;20327;-91
2022/03/12 23:52:16;;;;;;;31.05;17.90;;;;;;;;;;6251550;22;20007;-91
2022/03/12 23:54:45;;;;;;;38.88;19.92;;;;;;;;;;6250705;22;20008;-89
